createdAt,value
2017-08-10T00:02:17.723Z,65.80
2017-08-10T00:04:44.176Z,66.10
2017-08-10T00:07:11.394Z,67.30
2017-08-10T00:09:37.861Z,67.20
2017-08-10T00:12:05.064Z,68.70
2017-08-10T00:14:31.580Z,68.80
2017-08-10T00:16:58.017Z,69.20
2017-08-10T00:19:24.453Z,69.60
2017-08-10T00:21:50.922Z,69.50
2017-08-10T00:24:17.356Z,69.60
2017-08-10T00:26:43.915Z,69.80
2017-08-10T00:29:11.112Z,71.80
2017-08-10T00:31:37.548Z,71.80
2017-08-10T00:34:04.010Z,71.60
2017-08-10T00:36:30.452Z,72.50
2017-08-10T00:38:56.910Z,72.90
2017-08-10T00:41:24.116Z,73.80
2017-08-10T00:43:50.570Z,73.80
2017-08-10T00:46:16.998Z,75.00
2017-08-10T00:48:43.454Z,75.40
2017-08-10T00:51:10.662Z,74.90
2017-08-10T00:53:37.099Z,74.80
2017-08-10T00:56:03.557Z,74.30
2017-08-10T00:58:30.004Z,73.90
2017-08-10T01:00:57.231Z,74.40
2017-08-10T01:03:23.654Z,74.00
2017-08-10T01:05:50.107Z,74.40
2017-08-10T01:08:16.527Z,74.40
2017-08-10T01:10:43.159Z,74.70
2017-08-10T01:13:09.620Z,74.10
2017-08-10T01:15:36.065Z,73.60
2017-08-10T01:18:02.511Z,73.00
2017-08-10T01:20:29.710Z,72.80
2017-08-10T01:22:56.171Z,72.80
2017-08-10T01:25:22.608Z,72.40
2017-08-10T01:27:49.059Z,72.80
2017-08-10T01:30:15.532Z,72.50
2017-08-10T01:32:41.979Z,72.30
2017-08-10T01:35:08.452Z,72.40
2017-08-10T01:37:35.659Z,73.10
2017-08-10T01:40:02.169Z,73.10
2017-08-10T01:42:28.618Z,72.70
2017-08-10T01:44:55.084Z,73.00
2017-08-10T01:47:21.644Z,73.00
2017-08-10T01:49:48.883Z,74.30
2017-08-10T01:52:16.080Z,73.70
2017-08-10T01:54:42.557Z,73.60
2017-08-10T01:57:09.048Z,73.50
2017-08-10T01:59:35.515Z,73.20
2017-08-10T02:02:02.024Z,73.60
2017-08-10T02:04:28.527Z,73.50
2017-08-10T02:06:55.727Z,73.00
2017-08-10T02:09:22.179Z,73.00
2017-08-10T02:11:48.647Z,72.70
2017-08-10T02:14:15.835Z,72.80
2017-08-10T02:16:42.297Z,72.80
2017-08-10T02:19:08.742Z,73.30
2017-08-10T02:21:35.218Z,73.00
2017-08-10T02:24:01.681Z,73.10
2017-08-10T02:26:28.136Z,73.20
2017-08-10T02:28:54.584Z,74.10
2017-08-10T02:31:21.058Z,73.90
2017-08-10T02:33:47.528Z,74.20
2017-08-10T02:36:14.000Z,74.00
2017-08-10T02:38:41.184Z,74.40
2017-08-10T02:41:07.651Z,74.40
2017-08-10T02:43:34.351Z,74.60
2017-08-10T02:46:00.806Z,74.80
2017-08-10T02:48:27.311Z,74.80
2017-08-10T02:50:53.832Z,75.30
2017-08-10T02:53:21.024Z,75.50
2017-08-10T02:55:47.488Z,75.40
2017-08-10T02:58:13.944Z,75.30
2017-08-10T03:00:41.133Z,75.20
2017-08-10T03:03:07.623Z,75.20
2017-08-10T03:05:34.823Z,75.20
2017-08-10T03:08:01.255Z,75.20
2017-08-10T03:10:27.696Z,75.10
2017-08-10T03:12:54.145Z,75.30
2017-08-10T03:15:20.610Z,74.90
2017-08-10T03:17:47.767Z,75.10
2017-08-10T03:20:14.969Z,75.00
2017-08-10T03:22:41.457Z,75.00
2017-08-10T03:25:07.923Z,75.20
2017-08-10T03:27:34.382Z,75.50
2017-08-10T03:30:00.840Z,73.70
2017-08-10T03:32:28.017Z,74.20
2017-08-10T03:34:54.476Z,74.20
2017-08-10T03:37:20.950Z,74.60
2017-08-10T03:39:48.865Z,75.20
2017-08-10T03:42:15.331Z,75.20
2017-08-10T03:44:41.779Z,75.20
2017-08-10T03:47:08.219Z,75.30
2017-08-10T03:49:35.424Z,76.10
2017-08-10T03:52:01.873Z,76.00
2017-08-10T03:54:28.352Z,75.80
2017-08-10T03:56:55.553Z,76.30
2017-08-10T03:59:21.994Z,76.30
2017-08-10T04:01:48.427Z,76.20
2017-08-10T04:04:14.944Z,76.00
2017-08-10T04:06:41.393Z,75.10
2017-08-10T04:09:07.854Z,74.80
2017-08-10T04:11:34.339Z,74.80
2017-08-10T04:14:00.823Z,75.30
2017-08-10T04:16:27.294Z,75.20
2017-08-10T04:18:53.755Z,75.10
2017-08-10T04:21:20.203Z,75.90
2017-08-10T04:23:46.647Z,75.30
2017-08-10T04:26:13.111Z,76.20
2017-08-10T04:28:40.285Z,75.50
2017-08-10T04:31:06.723Z,75.50
2017-08-10T04:33:33.175Z,75.50
2017-08-10T04:35:59.630Z,75.40
2017-08-10T04:38:26.129Z,75.40
2017-08-10T04:40:52.601Z,75.00
2017-08-10T04:43:19.074Z,75.20
2017-08-10T04:45:45.576Z,75.60
2017-08-10T04:48:12.041Z,75.70
2017-08-10T04:50:38.538Z,75.70
2017-08-10T04:53:04.987Z,75.60
2017-08-10T04:55:31.446Z,75.60
2017-08-10T04:57:57.955Z,76.10
2017-08-10T05:00:25.195Z,76.10
2017-08-10T05:02:51.651Z,75.70
2017-08-10T05:05:18.124Z,75.70
2017-08-10T05:07:45.152Z,75.70
2017-08-10T05:10:11.600Z,76.00
2017-08-10T05:12:38.142Z,76.20
2017-08-10T05:15:04.686Z,76.40
2017-08-10T05:17:31.143Z,77.50
2017-08-10T05:19:57.618Z,77.60
2017-08-10T05:22:24.073Z,77.50
2017-08-10T05:24:50.511Z,78.20
2017-08-10T05:27:17.498Z,78.30
2017-08-10T05:29:43.936Z,77.70
2017-08-10T05:32:10.390Z,77.00
2017-08-10T05:34:37.559Z,76.20
2017-08-10T05:37:04.010Z,76.90
2017-08-10T05:39:30.465Z,75.20
2017-08-10T05:41:56.923Z,75.30
2017-08-10T05:44:23.379Z,75.00
2017-08-10T05:46:50.558Z,73.60
2017-08-10T05:49:17.028Z,73.60
2017-08-10T05:51:43.480Z,73.30
2017-08-10T05:54:09.925Z,72.70
2017-08-10T05:56:37.123Z,72.20
2017-08-10T05:59:03.590Z,72.10
2017-08-10T06:01:30.059Z,72.10
2017-08-10T06:03:57.256Z,72.60
2017-08-10T06:06:23.733Z,72.60
2017-08-10T06:08:50.921Z,71.50
2017-08-10T06:11:17.397Z,71.30
2017-08-10T06:13:43.839Z,71.70
2017-08-10T06:16:10.317Z,70.20
2017-08-10T06:18:36.789Z,69.70
2017-08-10T06:21:03.251Z,69.10
2017-08-10T06:23:30.444Z,67.00
2017-08-10T06:25:56.924Z,67.00
2017-08-10T06:28:24.127Z,65.30
2017-08-10T06:30:50.601Z,65.20
2017-08-10T06:33:17.123Z,64.70
2017-08-10T06:35:43.607Z,61.30
2017-08-10T06:38:10.122Z,62.40
2017-08-10T06:40:37.332Z,61.00
2017-08-10T06:43:03.781Z,60.90
2017-08-10T06:45:30.242Z,59.70
2017-08-10T06:47:57.436Z,59.20
2017-08-10T06:50:23.913Z,59.20
2017-08-10T06:52:50.388Z,59.50
2017-08-10T06:55:16.840Z,61.10
2017-08-10T06:57:43.274Z,61.60
2017-08-10T07:00:09.728Z,62.90
2017-08-10T07:02:36.205Z,63.30
2017-08-10T07:05:03.442Z,63.80
2017-08-10T07:07:29.900Z,63.80
2017-08-10T07:09:57.095Z,62.00
2017-08-10T07:12:23.553Z,62.00
2017-08-10T07:14:50.000Z,62.30
2017-08-10T07:17:17.225Z,62.70
2017-08-10T07:19:43.660Z,62.70
2017-08-10T07:22:10.108Z,63.50
2017-08-10T07:24:36.568Z,63.60
2017-08-10T07:27:03.753Z,61.90
2017-08-10T07:29:30.217Z,61.90
2017-08-10T07:31:56.700Z,61.90
2017-08-10T07:34:23.151Z,61.20
2017-08-10T07:36:49.635Z,62.50
2017-08-10T07:39:16.096Z,62.00
2017-08-10T07:41:42.526Z,62.60
2017-08-10T07:44:09.729Z,62.20
2017-08-10T07:46:36.194Z,62.20
2017-08-10T07:49:03.412Z,62.20
2017-08-10T07:51:29.875Z,62.20
2017-08-10T07:53:57.297Z,61.70
2017-08-10T07:56:23.775Z,61.80
2017-08-10T07:58:50.990Z,62.00
2017-08-10T08:01:17.443Z,62.00
2017-08-10T08:03:43.890Z,61.30
2017-08-10T08:06:11.084Z,61.90
2017-08-10T08:08:37.547Z,61.90
2017-08-10T08:11:04.089Z,61.00
2017-08-10T08:13:45.498Z,59.40
2017-08-10T08:16:12.688Z,59.50
2017-08-10T08:18:39.149Z,58.80
2017-08-10T08:21:05.652Z,58.80
2017-08-10T08:23:32.148Z,58.90
2017-08-10T08:26:00.726Z,58.40
2017-08-10T08:28:42.842Z,58.20
2017-08-10T08:31:10.060Z,58.50
2017-08-10T08:33:36.554Z,58.50
2017-08-10T08:36:03.051Z,60.00
2017-08-10T08:38:30.293Z,59.30
2017-08-10T08:40:57.507Z,58.60
2017-08-10T08:43:23.991Z,58.60
2017-08-10T08:45:51.230Z,57.60
2017-08-10T08:48:17.668Z,57.60
2017-08-10T08:50:44.132Z,56.90
2017-08-10T08:53:17.771Z,57.50
2017-08-10T08:55:44.280Z,57.30
2017-08-10T08:58:10.757Z,59.10
2017-08-10T09:00:37.208Z,59.00
2017-08-10T09:03:03.684Z,59.20
2017-08-10T09:05:30.180Z,59.80
2017-08-10T09:07:56.639Z,60.10
2017-08-10T09:10:23.111Z,59.90
2017-08-10T09:12:49.576Z,60.70
2017-08-10T09:15:16.068Z,60.90
2017-08-10T09:17:42.546Z,60.60
2017-08-10T09:20:09.016Z,62.60
2017-08-10T09:22:35.534Z,63.20
2017-08-10T09:25:02.735Z,61.80
2017-08-10T09:27:29.250Z,61.80
2017-08-10T09:29:55.744Z,60.40
2017-08-10T09:32:22.218Z,60.20
2017-08-10T09:34:48.784Z,60.90
2017-08-10T09:37:15.256Z,61.10
2017-08-10T09:39:42.486Z,59.90
2017-08-10T09:42:08.959Z,59.90
2017-08-10T09:44:35.424Z,59.50
2017-08-10T09:47:01.901Z,58.50
2017-08-10T09:49:28.364Z,59.50
2017-08-10T09:51:54.860Z,60.10
2017-08-10T09:54:21.323Z,60.30
2017-08-10T09:56:48.499Z,60.00
2017-08-10T09:59:14.961Z,59.90
2017-08-10T10:01:41.397Z,59.20
2017-08-10T10:04:07.828Z,58.70
2017-08-10T10:06:34.281Z,57.10
2017-08-10T10:09:02.298Z,58.80
2017-08-10T10:11:28.768Z,58.80
2017-08-10T10:13:55.233Z,58.20
2017-08-10T10:16:22.435Z,57.10
2017-08-10T10:18:49.100Z,57.10
2017-08-10T10:21:15.551Z,57.60
2017-08-10T10:23:56.935Z,57.90
2017-08-10T10:26:23.834Z,57.60
2017-08-10T10:28:50.280Z,57.10
2017-08-10T10:31:16.696Z,57.90
2017-08-10T10:33:43.143Z,57.90
2017-08-10T10:36:09.613Z,57.60
2017-08-10T10:38:36.091Z,57.60
2017-08-10T10:41:02.575Z,58.00
2017-08-10T10:43:29.037Z,57.70
2017-08-10T10:45:56.218Z,54.90
2017-08-10T10:48:22.682Z,54.90
2017-08-10T10:50:49.124Z,54.60
2017-08-10T10:53:15.589Z,54.10
2017-08-10T10:55:42.047Z,54.40
2017-08-10T10:58:14.655Z,54.20
2017-08-10T11:03:29.721Z,54.70
2017-08-10T11:06:04.858Z,54.40
2017-08-10T11:08:32.398Z,54.90
2017-08-10T11:11:11.644Z,53.80
2017-08-10T11:13:47.985Z,53.30
2017-08-10T11:16:30.904Z,53.40
2017-08-10T11:19:18.468Z,53.30
2017-08-10T11:24:22.460Z,52.80
2017-08-10T11:26:52.719Z,52.40
2017-08-10T11:29:19.168Z,52.10
2017-08-10T11:31:45.640Z,51.70
2017-08-10T11:34:12.803Z,51.30
2017-08-10T11:36:46.942Z,51.30
2017-08-10T11:39:13.421Z,51.00
2017-08-10T11:41:39.900Z,52.00
2017-08-10T11:44:06.365Z,52.80
2017-08-10T11:46:32.834Z,52.30
2017-08-10T11:48:59.310Z,52.30
2017-08-10T11:51:25.772Z,51.60
2017-08-10T11:53:52.200Z,51.60
2017-08-10T11:56:18.651Z,49.50
2017-08-10T11:58:45.123Z,48.70
2017-08-10T12:01:11.603Z,50.10
2017-08-10T12:03:38.052Z,48.80
2017-08-10T12:06:04.509Z,48.20
2017-08-10T12:08:30.973Z,48.30
2017-08-10T12:10:57.415Z,47.70
2017-08-10T12:13:23.884Z,46.80
2017-08-10T12:15:50.349Z,46.00
2017-08-10T12:18:17.553Z,46.00
2017-08-10T12:20:44.010Z,46.00
2017-08-10T12:23:10.484Z,46.10
2017-08-10T12:25:36.915Z,45.20
2017-08-10T12:28:03.571Z,46.20
2017-08-10T12:30:30.025Z,46.80
2017-08-10T12:32:56.469Z,46.90
2017-08-10T12:35:22.957Z,48.40
2017-08-10T12:38:04.352Z,49.20
2017-08-10T12:40:30.822Z,49.60
2017-08-10T12:42:57.259Z,50.60
2017-08-10T12:45:23.717Z,51.60
2017-08-10T12:47:50.201Z,51.60
2017-08-10T12:50:16.670Z,50.80
2017-08-10T12:52:43.124Z,51.10
2017-08-10T12:55:10.361Z,48.50
2017-08-10T12:57:36.805Z,48.50
2017-08-10T13:00:03.306Z,47.30
2017-08-10T13:02:29.782Z,48.30
2017-08-10T13:04:56.971Z,48.50
2017-08-10T13:07:23.432Z,48.90
2017-08-10T13:09:49.874Z,48.40
2017-08-10T13:12:16.354Z,45.50
2017-08-10T13:14:42.807Z,44.80
2017-08-10T13:17:09.256Z,43.50
2017-08-10T13:19:35.753Z,42.30
2017-08-10T13:22:02.235Z,42.70
2017-08-10T13:24:28.693Z,42.40
2017-08-10T13:27:10.825Z,43.10
2017-08-10T13:29:37.308Z,42.80
2017-08-10T13:32:03.790Z,39.70
2017-08-10T13:34:30.288Z,40.70
2017-08-10T13:36:56.749Z,41.50
2017-08-10T13:39:23.227Z,42.40
2017-08-10T13:41:49.696Z,42.70
2017-08-10T13:44:16.173Z,42.00
2017-08-10T13:46:43.432Z,41.90
2017-08-10T13:49:09.905Z,41.10
2017-08-10T13:51:36.353Z,41.80
2017-08-10T13:54:03.418Z,42.40
2017-08-10T13:56:30.603Z,43.10
2017-08-10T13:58:57.079Z,43.00
2017-08-10T14:01:23.566Z,41.60
2017-08-10T14:03:50.032Z,42.00
2017-08-10T14:06:16.507Z,41.00
2017-08-10T14:08:43.720Z,42.50
2017-08-10T14:11:10.153Z,42.50
2017-08-10T14:13:36.594Z,42.00
2017-08-10T14:16:03.054Z,42.40
2017-08-10T14:18:30.260Z,43.50
2017-08-10T14:20:56.724Z,43.10
2017-08-10T14:23:23.194Z,43.40
2017-08-10T14:25:49.646Z,42.70
2017-08-10T14:28:16.080Z,42.90
2017-08-10T14:30:42.544Z,42.30
2017-08-10T14:33:09.032Z,42.60
2017-08-10T14:35:35.456Z,42.70
2017-08-10T14:38:01.932Z,42.90
2017-08-10T14:40:28.451Z,43.00
2017-08-10T14:42:54.946Z,42.60
2017-08-10T14:45:22.252Z,44.20
2017-08-10T14:47:48.707Z,44.00
2017-08-10T14:50:15.208Z,44.10
2017-08-10T14:52:41.659Z,44.50
2017-08-10T14:55:08.160Z,45.10
2017-08-10T14:57:34.619Z,45.30
2017-08-10T15:00:01.119Z,44.40
2017-08-10T15:02:28.295Z,45.90
2017-08-10T15:04:54.785Z,45.90
2017-08-10T15:07:21.238Z,46.10
2017-08-10T15:09:48.441Z,46.30
2017-08-10T15:12:14.895Z,46.30
2017-08-10T15:14:41.351Z,46.70
2017-08-10T15:17:08.551Z,48.50
2017-08-10T15:19:35.009Z,48.50
2017-08-10T15:22:01.453Z,50.70
2017-08-10T15:24:27.941Z,52.70
2017-08-10T15:26:54.436Z,53.00
2017-08-10T15:29:21.623Z,55.00
2017-08-10T15:31:48.083Z,55.00
2017-08-10T15:34:14.547Z,54.20
2017-08-10T15:36:41.020Z,56.80
2017-08-10T15:39:07.492Z,57.20
2017-08-10T15:41:33.948Z,58.70
2017-08-10T15:44:00.389Z,58.70
2017-08-10T15:46:27.214Z,59.50
2017-08-10T15:48:53.655Z,58.50
2017-08-10T15:51:20.112Z,59.00
2017-08-10T15:53:47.351Z,58.10
2017-08-10T15:56:13.851Z,57.50
2017-08-10T15:58:40.299Z,56.90
2017-08-10T16:01:06.746Z,57.40
2017-08-10T16:03:33.201Z,57.80
2017-08-10T16:06:00.390Z,58.20
2017-08-10T16:08:26.878Z,58.20
2017-08-10T16:10:53.335Z,57.00
2017-08-10T16:13:19.784Z,55.20
2017-08-10T16:15:46.239Z,56.10
2017-08-10T16:18:12.687Z,58.40
2017-08-10T16:20:39.151Z,59.10
2017-08-10T16:23:06.347Z,58.60
2017-08-10T16:25:32.786Z,58.50
2017-08-10T16:27:59.260Z,59.20
2017-08-10T16:30:26.467Z,57.80
2017-08-10T16:32:52.907Z,57.80
2017-08-10T16:35:19.416Z,57.00
2017-08-10T16:37:45.871Z,57.80
2017-08-10T16:40:12.387Z,57.00
2017-08-10T16:42:39.123Z,55.70
2017-08-10T16:45:05.572Z,56.90
2017-08-10T16:47:32.036Z,56.70
2017-08-10T16:49:58.517Z,57.80
2017-08-10T16:52:24.959Z,57.10
2017-08-10T16:54:51.401Z,56.40
2017-08-10T16:57:17.861Z,56.20
2017-08-10T16:59:44.306Z,54.50
2017-08-10T17:02:10.777Z,53.20
2017-08-10T17:04:37.981Z,51.40
2017-08-10T17:07:04.431Z,50.80
2017-08-10T17:09:30.930Z,50.80
2017-08-10T17:11:57.415Z,50.70
2017-08-10T17:14:23.848Z,49.90
2017-08-10T17:16:50.306Z,49.40
2017-08-10T17:19:16.756Z,48.60
2017-08-10T17:21:43.222Z,49.10
2017-08-10T17:24:09.704Z,49.10
2017-08-10T17:26:36.147Z,49.00
2017-08-10T17:29:02.598Z,51.20
2017-08-10T17:31:29.056Z,51.60
2017-08-10T17:33:55.509Z,52.70
2017-08-10T17:36:21.956Z,55.80
2017-08-10T17:38:49.163Z,56.00
2017-08-10T17:41:15.608Z,55.90
2017-08-10T17:43:42.070Z,55.30
2017-08-10T17:46:09.523Z,55.50
2017-08-10T17:48:37.454Z,54.20
2017-08-10T17:51:03.912Z,54.20
2017-08-10T17:53:30.381Z,53.40
2017-08-10T17:55:56.855Z,54.20
2017-08-10T17:58:23.339Z,54.40
2017-08-10T18:00:50.527Z,52.60
2017-08-10T18:03:16.996Z,52.60
2017-08-10T18:05:43.494Z,52.30
2017-08-10T18:08:09.929Z,52.30
2017-08-10T18:10:36.415Z,51.80
2017-08-10T18:13:02.904Z,54.40
2017-08-10T18:15:29.384Z,58.10
2017-08-10T18:17:56.598Z,59.40
2017-08-10T18:20:23.043Z,59.20
2017-08-10T18:22:49.471Z,56.40
2017-08-10T18:25:15.931Z,56.90
2017-08-10T18:27:42.371Z,57.00
2017-08-10T18:30:08.809Z,56.30
2017-08-10T18:32:35.308Z,56.70
2017-08-10T18:35:01.737Z,57.50
2017-08-10T18:37:28.196Z,58.40
2017-08-10T18:39:54.645Z,58.00
2017-08-10T18:42:21.859Z,57.70
2017-08-10T18:44:48.302Z,58.20
2017-08-10T18:47:14.744Z,59.00
2017-08-10T18:49:41.449Z,60.80
2017-08-10T18:52:07.892Z,62.20
2017-08-10T18:54:34.359Z,60.00
2017-08-10T18:57:00.848Z,58.10
2017-08-10T18:59:27.328Z,57.30
2017-08-10T19:01:53.759Z,56.40
2017-08-10T19:04:20.240Z,56.60
2017-08-10T19:06:46.688Z,56.50
2017-08-10T19:09:13.147Z,56.30
2017-08-10T19:11:39.606Z,56.20
2017-08-10T19:14:06.051Z,56.40
2017-08-10T19:16:33.247Z,56.00
2017-08-10T19:18:59.713Z,55.80
2017-08-10T19:21:26.204Z,57.20
2017-08-10T19:23:52.670Z,57.70
2017-08-10T19:26:19.116Z,58.10
2017-08-10T19:28:45.580Z,59.40
2017-08-10T19:31:12.774Z,60.60
2017-08-10T19:33:39.266Z,60.50
2017-08-10T19:36:05.825Z,60.10
2017-08-10T19:38:32.298Z,60.30
2017-08-10T19:40:58.727Z,61.20
2017-08-10T19:43:25.179Z,61.60
2017-08-10T19:45:51.634Z,61.90
2017-08-10T19:48:18.816Z,61.60
2017-08-10T19:50:45.268Z,61.60
2017-08-10T19:53:11.712Z,62.10
2017-08-10T19:55:38.159Z,63.20
2017-08-10T19:58:04.644Z,63.50
2017-08-10T20:00:31.105Z,63.80
2017-08-10T20:02:57.546Z,63.70
2017-08-10T20:05:24.026Z,64.00
2017-08-10T20:07:50.491Z,64.30
2017-08-10T20:10:16.943Z,64.30
2017-08-10T20:12:43.414Z,65.20
2017-08-10T20:15:09.867Z,64.40
2017-08-10T20:17:36.316Z,64.10
2017-08-10T20:20:02.777Z,64.60
2017-08-10T20:22:29.241Z,65.20
2017-08-10T20:24:55.720Z,65.40
2017-08-10T20:27:22.179Z,66.50
2017-08-10T20:29:48.638Z,66.20
2017-08-10T20:32:15.119Z,65.70
2017-08-10T20:34:41.579Z,65.70
2017-08-10T20:37:08.011Z,65.70
2017-08-10T20:39:34.472Z,66.50
2017-08-10T20:42:00.920Z,67.00
2017-08-10T20:44:28.088Z,67.40
2017-08-10T20:46:54.564Z,67.60
2017-08-10T20:49:21.035Z,67.60
2017-08-10T20:51:47.511Z,68.10
2017-08-10T20:54:13.959Z,68.60
2017-08-10T20:56:40.423Z,67.50
2017-08-10T20:59:06.885Z,67.80
2017-08-10T21:01:34.096Z,70.60
2017-08-10T21:04:00.544Z,70.60
2017-08-10T21:06:27.009Z,70.20
2017-08-10T21:08:54.211Z,72.60
2017-08-10T21:11:20.663Z,72.50
2017-08-10T21:13:47.127Z,72.80
2017-08-10T21:16:14.323Z,73.70
2017-08-10T21:18:40.771Z,73.70
2017-08-10T21:21:07.242Z,74.80
2017-08-10T21:23:34.425Z,75.90
2017-08-10T21:26:00.957Z,75.80
2017-08-10T21:28:27.418Z,76.10
2017-08-10T21:30:53.861Z,75.80
2017-08-10T21:33:20.330Z,76.00
2017-08-10T21:35:46.813Z,76.00
2017-08-10T21:38:13.255Z,76.20
2017-08-10T21:40:39.687Z,75.40
2017-08-10T21:43:06.156Z,75.20
2017-08-10T21:45:33.528Z,74.70
2017-08-10T21:48:00.020Z,74.60
2017-08-10T21:50:26.512Z,74.30
2017-08-10T21:52:52.956Z,74.10
2017-08-10T21:55:19.417Z,73.50
2017-08-10T21:57:45.917Z,73.00
2017-08-10T22:00:14.582Z,72.60
2017-08-10T22:02:41.054Z,72.40
2017-08-10T22:05:07.531Z,72.70
2017-08-10T22:07:33.975Z,73.20
2017-08-10T22:10:01.209Z,71.90
2017-08-10T22:12:27.665Z,71.90
2017-08-10T22:14:54.860Z,73.00
2017-08-10T22:17:21.279Z,72.90
2017-08-10T22:19:47.764Z,73.60
2017-08-10T22:22:14.956Z,74.50
2017-08-10T22:24:41.460Z,73.70
2017-08-10T22:27:08.652Z,74.90
2017-08-10T22:29:35.116Z,74.90
2017-08-10T22:32:01.612Z,75.10
2017-08-10T22:34:28.093Z,75.00
2017-08-10T22:36:54.560Z,74.50
2017-08-10T22:39:21.764Z,74.00
2017-08-10T22:41:48.216Z,73.90
2017-08-10T22:44:14.698Z,73.80
2017-08-10T22:46:41.171Z,74.00
2017-08-10T22:49:07.623Z,74.30
2017-08-10T22:51:34.087Z,74.70
2017-08-10T22:54:00.544Z,74.40
2017-08-10T22:56:26.983Z,74.60
2017-08-10T22:58:53.435Z,74.20
2017-08-10T23:01:19.907Z,74.10
2017-08-10T23:03:47.075Z,74.50
2017-08-10T23:06:13.520Z,74.30
2017-08-10T23:08:39.961Z,74.00
2017-08-10T23:11:06.436Z,74.20
2017-08-10T23:13:32.905Z,74.50
2017-08-10T23:15:59.361Z,74.60
2017-08-10T23:18:25.807Z,74.70
2017-08-10T23:20:52.282Z,74.80
2017-08-10T23:23:19.471Z,75.10
2017-08-10T23:25:45.926Z,75.00
2017-08-10T23:28:12.369Z,75.40
2017-08-10T23:30:38.826Z,75.50
2017-08-10T23:33:05.313Z,75.80
2017-08-10T23:35:31.779Z,76.00
2017-08-10T23:37:58.200Z,76.20
2017-08-10T23:40:24.662Z,76.80
2017-08-10T23:42:51.121Z,77.00
2017-08-10T23:45:17.591Z,76.60
2017-08-10T23:47:44.050Z,75.80
2017-08-10T23:50:10.507Z,75.70
2017-08-10T23:52:36.943Z,75.60
2017-08-10T23:55:04.151Z,75.20
2017-08-10T23:57:30.599Z,75.20
2017-08-10T23:59:57.040Z,75.30
